Time;durP1;ratioP1;P1;durP2;ratioP2;P2;SDS_P1;SDS_P2;PMS_P1;PMS_P2;Temp;Humidity;BMP_temperature;BMP_pressure;BME280_temperature;BME280_humidity;BME280_pressure;Samples;Min_cycle;Max_cycle;Signal;HPM_P1;HPM_P2
2021/11/26 00:01:37;;;;;;;11.30;3.92;;;4.80;99.90;;;;;;5137742;27;20444;-69
2021/11/26 00:04:05;;;;;;;8.32;3.78;;;4.80;99.90;;;;;;5137919;27;20168;-69
2021/11/26 00:06:31;;;;;;;13.13;3.92;;;4.80;99.90;;;;;;5137902;27;20031;-69
2021/11/26 00:08:57;;;;;;;9.60;3.70;;;4.80;99.90;;;;;;5138066;27;20046;-70
2021/11/26 00:11:24;;;;;;;11.80;3.80;;;4.80;99.90;;;;;;5137755;27;20117;-69
2021/11/26 00:14:00;;;;;;;11.30;3.67;;;4.80;99.90;;;;;;5137831;27;20051;-69
2021/11/26 00:16:32;;;;;;;13.27;4.15;;;4.80;99.90;;;;;;5137674;27;20035;-69
2021/11/26 00:19:03;;;;;;;13.35;4.35;;;4.80;99.90;;;;;;5136502;27;20042;-69
2021/11/26 00:21:29;;;;;;;9.30;4.63;;;4.80;99.90;;;;;;5137663;27;20054;-69
2021/11/26 00:23:54;;;;;;;16.83;5.05;;;4.80;99.90;;;;;;5137515;27;20031;-69
2021/11/26 00:26:20;;;;;;;9.80;3.60;;;4.80;99.90;;;;;;5137096;27;20076;-69
2021/11/26 00:28:46;;;;;;;15.13;4.47;;;4.80;99.90;;;;;;5137984;27;20031;-70
2021/11/26 00:31:11;;;;;;;11.13;4.00;;;4.80;99.90;;;;;;5137628;27;20373;-70
2021/11/26 00:33:37;;;;;;;11.90;4.20;;;4.80;99.90;;;;;;5136251;27;20039;-69
2021/11/26 00:36:03;;;;;;;14.07;3.95;;;4.80;99.90;;;;;;5137056;27;20044;-69
2021/11/26 00:38:28;;;;;;;9.82;3.03;;;4.70;99.90;;;;;;5137650;27;20070;-69
2021/11/26 00:40:54;;;;;;;12.25;3.92;;;4.70;99.90;;;;;;5137108;27;20070;-69
2021/11/26 00:43:20;;;;;;;10.20;3.95;;;4.70;99.90;;;;;;5137222;27;20039;-69
2021/11/26 00:45:45;;;;;;;11.02;4.20;;;4.70;99.90;;;;;;5135595;27;20154;-69
2021/11/26 00:48:11;;;;;;;11.40;3.60;;;4.70;99.90;;;;;;5135645;27;20111;-70
2021/11/26 00:50:37;;;;;;;7.82;3.40;;;4.70;99.90;;;;;;5137130;27;20035;-70
2021/11/26 00:53:04;;;;;;;12.30;5.38;;;4.70;99.90;;;;;;5137436;27;20071;-70
2021/11/26 00:55:30;;;;;;;16.30;5.43;;;4.80;99.90;;;;;;5136182;27;20071;-69
2021/11/26 00:57:55;;;;;;;9.57;3.53;;;4.80;99.90;;;;;;5136848;27;20194;-69
2021/11/26 01:00:21;;;;;;;8.38;3.53;;;4.80;99.90;;;;;;5137146;27;20365;-70
2021/11/26 01:02:47;;;;;;;8.35;3.80;;;4.80;99.90;;;;;;5136662;27;20031;-69
2021/11/26 01:05:13;;;;;;;7.32;2.97;;;4.80;99.90;;;;;;5136845;27;20083;-70
2021/11/26 01:07:41;;;;;;;6.05;2.83;;;4.80;99.90;;;;;;5136346;27;20035;-69
2021/11/26 01:10:10;;;;;;;11.68;3.72;;;4.90;99.90;;;;;;5136757;27;20043;-69
2021/11/26 01:12:36;;;;;;;8.35;2.95;;;4.90;99.90;;;;;;5136497;27;20049;-70
2021/11/26 01:15:04;;;;;;;12.15;3.05;;;4.90;99.90;;;;;;5136638;27;20114;-70
2021/11/26 01:17:30;;;;;;;9.48;2.83;;;4.90;99.90;;;;;;5136639;27;20047;-69
2021/11/26 01:19:56;;;;;;;11.18;2.95;;;4.90;99.90;;;;;;5136538;27;20084;-70
2021/11/26 01:22:21;;;;;;;9.05;2.97;;;4.90;99.90;;;;;;5134985;27;20516;-70
2021/11/26 01:24:47;;;;;;;10.60;3.22;;;4.80;99.90;;;;;;5136682;27;20047;-70
2021/11/26 01:27:13;;;;;;;7.43;3.08;;;4.80;99.90;;;;;;5136089;27;20042;-69
2021/11/26 01:29:38;;;;;;;7.07;2.90;;;4.80;99.90;;;;;;5136333;27;20385;-69
2021/11/26 01:32:05;;;;;;;7.97;3.15;;;4.80;99.90;;;;;;5136289;27;20484;-69
2021/11/26 01:34:32;;;;;;;9.05;3.15;;;4.80;99.90;;;;;;5136504;27;20039;-69
2021/11/26 01:36:57;;;;;;;7.60;3.20;;;4.80;99.90;;;;;;5135803;27;20045;-69
2021/11/26 01:39:24;;;;;;;7.95;4.00;;;4.70;99.90;;;;;;5134975;27;20050;-70
2021/11/26 01:41:52;;;;;;;6.93;2.85;;;4.70;99.90;;;;;;5136080;27;20103;-69
2021/11/26 01:44:18;;;;;;;11.38;3.00;;;4.70;99.90;;;;;;5135997;27;20047;-70
2021/11/26 01:46:45;;;;;;;10.18;2.83;;;4.70;99.90;;;;;;5134453;27;20427;-69
2021/11/26 01:49:12;;;;;;;8.02;2.90;;;4.70;99.90;;;;;;5135922;27;20037;-70
2021/11/26 01:51:38;;;;;;;7.63;2.50;;;4.70;99.90;;;;;;5135828;27;20124;-69
2021/11/26 01:54:05;;;;;;;8.45;2.70;;;4.70;99.90;;;;;;5135627;27;20062;-70
2021/11/26 01:56:31;;;;;;;6.20;2.40;;;4.80;99.90;;;;;;5135517;27;20081;-69
2021/11/26 01:58:57;;;;;;;10.65;3.25;;;4.70;99.90;;;;;;5117513;27;20046;-70
2021/11/26 02:01:24;;;;;;;7.60;2.75;;;4.70;99.90;;;;;;5135649;27;20035;-70
2021/11/26 02:03:50;;;;;;;10.57;3.38;;;4.60;99.90;;;;;;5135546;27;20411;-69
2021/11/26 02:06:15;;;;;;;8.32;2.47;;;4.60;99.90;;;;;;5135747;27;20059;-69
2021/11/26 02:08:41;;;;;;;4.28;2.33;;;4.60;99.90;;;;;;5134590;27;20045;-69
2021/11/26 02:11:07;;;;;;;9.15;2.30;;;4.70;99.90;;;;;;5135403;27;20584;-70
2021/11/26 02:13:33;;;;;;;5.15;2.40;;;4.60;99.90;;;;;;5135430;27;20039;-70
2021/11/26 02:16:01;;;;;;;7.90;3.47;;;4.60;99.90;;;;;;5135513;27;20172;-69
2021/11/26 02:18:27;;;;;;;8.55;2.13;;;4.60;99.90;;;;;;5135899;27;20035;-70
2021/11/26 02:20:53;;;;;;;7.40;2.17;;;4.60;99.90;;;;;;5135154;27;20046;-70
2021/11/26 02:23:19;;;;;;;6.95;2.05;;;4.70;99.90;;;;;;5134969;27;20084;-70
2021/11/26 02:25:46;;;;;;;6.20;1.70;;;4.60;99.90;;;;;;5134721;27;20126;-69
2021/11/26 02:28:14;;;;;;;7.35;2.08;;;4.70;99.90;;;;;;5135215;27;20035;-70
2021/11/26 02:30:42;;;;;;;6.22;2.15;;;4.60;99.90;;;;;;5135203;27;20122;-69
2021/11/26 02:33:12;;;;;;;7.63;2.13;;;4.70;99.90;;;;;;5134081;27;20446;-70
2021/11/26 02:35:39;;;;;;;7.15;2.03;;;4.60;99.90;;;;;;5133677;27;20031;-69
2021/11/26 02:38:07;;;;;;;3.15;1.77;;;4.70;99.90;;;;;;5135148;27;20031;-69
2021/11/26 02:40:34;;;;;;;4.07;2.08;;;4.70;99.90;;;;;;5133900;27;20043;-69
2021/11/26 02:43:00;;;;;;;6.70;1.90;;;4.60;99.90;;;;;;5133936;27;20074;-70
2021/11/26 02:45:27;;;;;;;8.63;1.98;;;4.70;99.90;;;;;;5134823;27;20511;-70
2021/11/26 02:47:54;;;;;;;4.15;1.38;;;4.70;99.90;;;;;;5134737;27;20032;-70
2021/11/26 02:50:20;;;;;;;7.68;2.15;;;4.70;99.90;;;;;;5135069;27;20039;-70
2021/11/26 02:52:46;;;;;;;5.43;1.80;;;4.70;99.90;;;;;;5133612;27;20039;-70
2021/11/26 02:55:18;;;;;;;3.47;1.20;;;4.70;99.90;;;;;;5133800;27;20038;-70
2021/11/26 02:57:44;;;;;;;4.72;1.95;;;4.70;99.90;;;;;;5133208;27;20038;-70
2021/11/26 03:00:13;;;;;;;4.78;1.65;;;4.70;99.90;;;;;;5134722;27;20046;-69
2021/11/26 03:02:39;;;;;;;5.43;1.67;;;4.70;99.90;;;;;;5133764;27;20050;-70
2021/11/26 03:05:05;;;;;;;9.07;1.73;;;4.70;99.90;;;;;;5133506;27;20039;-70
2021/11/26 03:07:31;;;;;;;9.30;1.23;;;4.70;99.90;;;;;;5133595;27;20058;-70
2021/11/26 03:09:56;;;;;;;7.65;1.45;;;4.70;99.90;;;;;;5134708;27;20035;-70
2021/11/26 03:12:22;;;;;;;5.38;1.45;;;4.70;99.90;;;;;;5134523;27;20039;-70
2021/11/26 03:14:48;;;;;;;5.85;1.20;;;4.70;99.90;;;;;;5134479;27;20082;-70
2021/11/26 03:17:15;;;;;;;5.53;1.30;;;4.70;99.90;;;;;;5134270;27;20069;-69
2021/11/26 03:19:41;;;;;;;5.25;1.23;;;4.70;99.90;;;;;;5132845;27;20039;-70
2021/11/26 03:22:06;;;;;;;3.15;1.33;;;4.70;99.90;;;;;;5133211;27;20381;-70
2021/11/26 03:24:32;;;;;;;5.15;1.23;;;4.70;99.90;;;;;;5133222;27;20051;-70
2021/11/26 03:26:57;;;;;;;4.13;1.40;;;4.60;99.90;;;;;;5133938;28;20453;-70
2021/11/26 03:29:23;;;;;;;6.78;1.30;;;4.60;99.90;;;;;;5134428;28;20176;-70
2021/11/26 03:31:49;;;;;;;3.92;1.63;;;4.60;99.90;;;;;;5134365;28;20544;-70
2021/11/26 03:34:14;;;;;;;4.40;1.17;;;4.60;99.90;;;;;;5133421;27;20066;-70
2021/11/26 03:36:40;;;;;;;7.03;1.40;;;4.60;99.90;;;;;;5134160;28;20385;-69
2021/11/26 03:39:06;;;;;;;3.10;1.00;;;4.60;99.90;;;;;;5134186;28;20031;-70
2021/11/26 03:41:32;;;;;;;3.95;1.13;;;4.60;99.90;;;;;;5134151;27;20514;-70
2021/11/26 03:43:57;;;;;;;2.05;1.17;;;4.60;99.90;;;;;;5116335;28;20043;-70
2021/11/26 03:46:23;;;;;;;6.05;1.52;;;4.60;99.90;;;;;;5132585;28;20045;-69
2021/11/26 03:48:49;;;;;;;5.45;2.17;;;4.60;99.90;;;;;;5133938;27;20134;-70
2021/11/26 03:51:14;;;;;;;3.65;1.52;;;4.60;99.90;;;;;;5134229;27;20519;-69
2021/11/26 03:53:40;;;;;;;6.68;1.63;;;4.60;99.90;;;;;;5134039;27;20039;-70
2021/11/26 03:56:06;;;;;;;4.20;1.58;;;4.60;99.90;;;;;;5133836;28;20515;-69
2021/11/26 03:58:32;;;;;;;6.70;1.98;;;4.60;99.90;;;;;;5134012;27;20400;-70
2021/11/26 04:00:57;;;;;;;10.38;2.00;;;4.60;99.90;;;;;;5134034;27;20057;-70
2021/11/26 04:03:23;;;;;;;4.85;1.70;;;4.60;99.90;;;;;;5133891;27;20039;-70
2021/11/26 04:05:49;;;;;;;3.47;1.50;;;4.60;99.90;;;;;;5133575;27;20043;-69
2021/11/26 04:08:15;;;;;;;8.07;1.73;;;4.60;99.90;;;;;;5134203;27;20038;-69
2021/11/26 04:10:41;;;;;;;6.22;1.90;;;4.60;99.90;;;;;;5132435;28;20042;-70
2021/11/26 04:13:09;;;;;;;5.20;1.20;;;4.60;99.90;;;;;;5134238;27;20042;-69
2021/11/26 04:15:37;;;;;;;3.85;1.27;;;4.60;99.90;;;;;;5133602;27;20046;-69
2021/11/26 04:18:04;;;;;;;5.18;1.40;;;4.70;99.90;;;;;;5133744;27;20373;-70
2021/11/26 04:20:30;;;;;;;6.90;1.20;;;4.60;99.90;;;;;;5133978;27;20043;-70
2021/11/26 04:22:56;;;;;;;6.80;1.52;;;4.60;99.90;;;;;;5132422;27;20492;-70
2021/11/26 04:25:22;;;;;;;3.13;0.90;;;4.60;99.90;;;;;;5133760;28;20091;-70
2021/11/26 04:27:49;;;;;;;4.32;1.25;;;4.60;99.90;;;;;;5133390;27;20038;-69
2021/11/26 04:30:17;;;;;;;4.75;1.58;;;4.60;99.90;;;;;;5133557;27;20118;-70
2021/11/26 04:32:43;;;;;;;3.33;1.05;;;4.50;99.90;;;;;;5137457;27;20059;-69
2021/11/26 04:35:10;;;;;;;3.65;1.00;;;4.50;99.90;;;;;;5136276;27;20158;-70
2021/11/26 04:37:37;;;;;;;6.00;1.05;;;4.40;99.90;;;;;;5136894;27;20466;-69
2021/11/26 04:40:05;;;;;;;6.07;0.77;;;4.40;99.90;;;;;;5136693;27;20061;-70
2021/11/26 04:42:31;;;;;;;2.53;1.02;;;4.50;99.90;;;;;;5137433;27;20050;-70
2021/11/26 04:44:57;;;;;;;3.25;0.88;;;4.50;99.90;;;;;;5136451;27;20046;-70
2021/11/26 04:47:23;;;;;;;4.68;1.10;;;4.50;99.90;;;;;;5136811;27;20489;-70
2021/11/26 04:49:49;;;;;;;5.68;2.33;;;4.50;99.90;;;;;;5137462;27;20035;-69
2021/11/26 04:52:15;;;;;;;5.43;1.05;;;4.50;99.90;;;;;;5137487;27;20061;-69
2021/11/26 04:54:40;;;;;;;6.18;1.20;;;4.50;99.90;;;;;;5137391;27;20039;-69
2021/11/26 04:57:06;;;;;;;7.47;1.20;;;4.60;99.90;;;;;;5136600;27;20047;-70
2021/11/26 04:59:32;;;;;;;3.00;0.90;;;4.60;99.90;;;;;;5137163;27;20035;-70
2021/11/26 05:01:57;;;;;;;3.70;1.10;;;4.60;99.90;;;;;;5135548;27;20039;-70
2021/11/26 05:04:23;;;;;;;3.58;1.10;;;4.60;99.90;;;;;;5136970;27;20031;-70
2021/11/26 05:06:48;;;;;;;3.40;1.00;;;4.50;99.90;;;;;;5136567;27;20042;-69
2021/11/26 05:09:14;;;;;;;3.33;1.45;;;4.50;99.90;;;;;;5136942;27;20491;-69
2021/11/26 05:11:40;;;;;;;4.68;1.15;;;4.50;99.90;;;;;;5136996;27;20046;-69
2021/11/26 05:14:08;;;;;;;8.15;1.20;;;4.50;99.90;;;;;;5136856;27;20038;-70
2021/11/26 05:16:33;;;;;;;5.82;0.90;;;4.50;99.90;;;;;;5136500;27;20376;-69
2021/11/26 05:18:59;;;;;;;4.55;1.20;;;4.50;99.90;;;;;;5136965;27;20035;-68
2021/11/26 05:21:25;;;;;;;3.63;0.80;;;4.60;99.90;;;;;;5135669;27;20071;-69
2021/11/26 05:23:50;;;;;;;2.28;0.70;;;4.60;99.90;;;;;;5136376;27;20035;-69
2021/11/26 05:26:16;;;;;;;6.95;1.08;;;4.50;99.90;;;;;;5136165;27;20449;-69
2021/11/26 05:28:42;;;;;;;2.85;0.80;;;4.50;99.90;;;;;;5136186;27;20484;-69
2021/11/26 05:31:08;;;;;;;1.55;0.70;;;4.50;99.90;;;;;;5136294;27;20483;-69
2021/11/26 05:33:34;;;;;;;2.80;0.80;;;4.50;99.90;;;;;;5135278;27;20043;-69
2021/11/26 05:36:00;;;;;;;2.15;0.80;;;4.50;99.90;;;;;;5136060;27;20053;-69
2021/11/26 05:38:26;;;;;;;1.92;0.82;;;4.40;99.90;;;;;;5136542;27;20043;-69
2021/11/26 05:40:52;;;;;;;3.92;0.77;;;4.40;99.90;;;;;;5134635;27;20035;-70
2021/11/26 05:43:18;;;;;;;2.17;0.85;;;4.40;99.90;;;;;;5135691;27;20464;-69
2021/11/26 05:45:44;;;;;;;2.60;0.77;;;4.40;99.90;;;;;;5135722;27;20042;-70
2021/11/26 05:48:10;;;;;;;2.47;0.90;;;4.40;99.90;;;;;;5135922;27;20110;-70
2021/11/26 05:50:36;;;;;;;3.88;0.80;;;4.40;99.90;;;;;;5134483;27;20077;-70
2021/11/26 05:53:02;;;;;;;5.32;0.65;;;4.40;99.90;;;;;;5136162;27;20050;-69
2021/11/26 05:55:31;;;;;;;3.10;0.90;;;4.40;99.90;;;;;;5135779;27;20400;-70
2021/11/26 05:57:58;;;;;;;3.08;0.60;;;4.40;99.90;;;;;;5135603;27;20076;-70
2021/11/26 06:00:25;;;;;;;3.22;0.60;;;4.40;99.90;;;;;;5135688;27;20485;-70
2021/11/26 06:02:52;;;;;;;1.88;0.63;;;4.40;99.90;;;;;;5135670;27;20096;-70
2021/11/26 06:05:18;;;;;;;3.22;0.60;;;4.40;99.90;;;;;;5135780;27;20031;-70
2021/11/26 06:07:43;;;;;;;1.95;0.40;;;4.40;99.90;;;;;;5133892;27;20035;-70
2021/11/26 06:10:11;;;;;;;2.95;0.70;;;4.40;99.90;;;;;;5134552;27;20041;-70
2021/11/26 06:12:38;;;;;;;3.58;0.68;;;4.40;99.90;;;;;;5134147;27;20564;-70
2021/11/26 06:15:05;;;;;;;4.68;0.77;;;4.40;99.90;;;;;;5135599;27;20074;-70
2021/11/26 06:17:31;;;;;;;1.65;0.47;;;4.40;99.90;;;;;;5135144;27;20043;-69
2021/11/26 06:19:56;;;;;;;6.50;0.95;;;4.40;99.90;;;;;;5135372;27;20369;-70
2021/11/26 06:22:22;;;;;;;2.88;0.80;;;4.40;99.90;;;;;;5133876;27;20043;-70
2021/11/26 06:24:47;;;;;;;1.02;0.50;;;4.40;99.90;;;;;;5134950;27;20070;-70
2021/11/26 06:27:13;;;;;;;3.85;0.50;;;4.50;99.90;;;;;;5134719;27;20039;-70
2021/11/26 06:29:39;;;;;;;4.20;0.70;;;4.50;99.90;;;;;;5135268;27;20083;-70
2021/11/26 06:32:05;;;;;;;2.42;0.60;;;4.50;99.90;;;;;;5135644;27;20168;-70
2021/11/26 06:34:31;;;;;;;1.98;0.80;;;4.50;99.90;;;;;;5135478;27;20102;-70
2021/11/26 06:36:57;;;;;;;4.00;0.90;;;4.50;99.90;;;;;;5134367;27;20118;-70
2021/11/26 06:39:22;;;;;;;3.42;0.90;;;4.50;99.90;;;;;;5135231;27;20046;-70
2021/11/26 06:41:48;;;;;;;1.05;0.52;;;4.50;99.90;;;;;;5134981;27;20043;-70
2021/11/26 06:44:13;;;;;;;1.50;0.60;;;4.40;99.90;;;;;;5135102;27;20149;-70
2021/11/26 06:46:39;;;;;;;3.25;0.73;;;4.40;99.90;;;;;;5134378;27;20038;-70
2021/11/26 06:49:05;;;;;;;2.83;0.70;;;4.40;99.90;;;;;;5135319;27;20031;-70
2021/11/26 06:51:30;;;;;;;5.00;1.27;;;4.40;99.90;;;;;;5135279;27;20082;-70
2021/11/26 06:53:57;;;;;;;5.75;2.30;;;4.30;99.90;;;;;;5134603;27;20471;-70
2021/11/26 06:56:23;;;;;;;12.00;4.55;;;4.30;99.90;;;;;;5134160;27;20035;-70
2021/11/26 06:58:49;;;;;;;5.60;3.47;;;4.40;99.90;;;;;;5134698;27;20083;-70
2021/11/26 07:01:15;;;;;;;7.25;3.92;;;4.40;99.90;;;;;;5134648;27;20035;-70
2021/11/26 07:03:40;;;;;;;9.77;4.15;;;4.40;99.90;;;;;;5134585;27;20035;-70
2021/11/26 07:06:06;;;;;;;8.90;4.30;;;4.40;99.90;;;;;;5134520;27;20499;-69
2021/11/26 07:08:32;;;;;;;7.97;4.30;;;4.40;99.90;;;;;;5134545;27;20035;-69
2021/11/26 07:10:57;;;;;;;10.65;5.47;;;4.40;99.90;;;;;;5133234;27;20071;-69
2021/11/26 07:13:23;;;;;;;10.88;4.75;;;4.40;99.90;;;;;;5134580;27;20464;-70
2021/11/26 07:15:49;;;;;;;8.32;4.45;;;4.40;99.90;;;;;;5133037;27;20035;-69
2021/11/26 07:18:14;;;;;;;8.73;5.30;;;4.40;99.90;;;;;;5134689;27;20067;-70
2021/11/26 07:20:41;;;;;;;8.38;5.35;;;4.40;99.90;;;;;;5134485;27;20044;-69
2021/11/26 07:23:07;;;;;;;8.32;5.00;;;4.40;99.90;;;;;;5134152;27;20545;-70
2021/11/26 07:25:33;;;;;;;11.30;5.15;;;4.40;99.90;;;;;;5134458;27;20376;-70
2021/11/26 07:27:58;;;;;;;11.30;5.25;;;4.40;99.90;;;;;;5134543;28;20043;-70
2021/11/26 07:30:24;;;;;;;10.43;5.63;;;4.40;99.90;;;;;;5132907;28;20027;-70
2021/11/26 07:32:50;;;;;;;6.32;4.55;;;4.40;99.90;;;;;;5132882;28;20112;-70
2021/11/26 07:35:15;;;;;;;9.68;4.57;;;4.40;99.90;;;;;;5132876;28;20051;-70
2021/11/26 07:37:42;;;;;;;6.25;4.40;;;4.40;99.90;;;;;;5133520;28;20071;-70
2021/11/26 07:40:11;;;;;;;9.88;4.20;;;4.40;99.90;;;;;;5134300;27;20092;-70
2021/11/26 07:42:38;;;;;;;8.35;4.63;;;4.40;99.90;;;;;;5132976;28;20092;-69
2021/11/26 07:45:05;;;;;;;10.85;4.35;;;4.40;99.90;;;;;;5132883;27;20035;-69
2021/11/26 07:47:31;;;;;;;7.60;3.78;;;4.50;99.90;;;;;;5133806;27;20400;-69
2021/11/26 07:49:56;;;;;;;5.63;3.33;;;4.40;99.90;;;;;;5132767;27;20122;-69
2021/11/26 07:52:22;;;;;;;8.88;3.70;;;4.40;99.90;;;;;;5132615;28;20399;-69
2021/11/26 07:54:48;;;;;;;6.25;3.33;;;4.40;99.90;;;;;;5134124;28;20070;-69
2021/11/26 07:57:14;;;;;;;5.55;3.10;;;4.40;99.90;;;;;;5133635;28;20114;-69
2021/11/26 07:59:40;;;;;;;8.57;3.10;;;4.40;99.90;;;;;;5134352;27;20035;-69
2021/11/26 08:02:05;;;;;;;11.45;2.97;;;4.40;99.90;;;;;;5133166;28;20366;-69
2021/11/26 08:04:31;;;;;;;8.13;3.22;;;4.40;99.90;;;;;;5133792;27;20046;-69
2021/11/26 08:06:57;;;;;;;10.23;2.97;;;4.40;99.90;;;;;;5136504;27;20114;-69
2021/11/26 08:09:23;;;;;;;7.05;3.38;;;4.50;99.90;;;;;;5138045;27;20038;-69
2021/11/26 08:11:50;;;;;;;5.88;3.25;;;4.50;99.90;;;;;;5137020;27;20038;-69
2021/11/26 08:14:17;;;;;;;9.48;3.40;;;4.50;99.90;;;;;;5138361;27;20411;-69
2021/11/26 08:16:42;;;;;;;9.73;3.75;;;4.50;99.90;;;;;;5137657;27;20039;-69
2021/11/26 08:19:09;;;;;;;14.30;3.35;;;4.50;99.90;;;;;;5136475;27;20488;-69
2021/11/26 08:21:35;;;;;;;13.52;3.92;;;4.60;99.90;;;;;;5137443;27;20122;-69
2021/11/26 08:24:02;;;;;;;9.75;4.45;;;4.60;99.90;;;;;;5136248;27;20440;-69
2021/11/26 08:26:28;;;;;;;8.00;3.60;;;4.60;99.90;;;;;;5137079;27;20074;-69
2021/11/26 08:28:54;;;;;;;6.03;3.10;;;4.60;99.90;;;;;;5137640;27;20039;-70
2021/11/26 08:31:19;;;;;;;12.38;3.85;;;4.60;99.90;;;;;;5137709;27;20039;-69
2021/11/26 08:33:45;;;;;;;9.23;4.05;;;4.60;99.90;;;;;;5137662;27;20039;-69
2021/11/26 08:36:10;;;;;;;11.82;3.63;;;4.70;99.90;;;;;;5135696;27;20152;-69
2021/11/26 08:38:36;;;;;;;8.85;3.83;;;4.70;99.90;;;;;;5137319;27;20031;-69
2021/11/26 08:41:02;;;;;;;8.43;4.75;;;4.70;99.90;;;;;;5136883;27;20437;-69
2021/11/26 08:43:28;;;;;;;8.77;3.70;;;4.70;99.90;;;;;;5137451;27;20054;-69
2021/11/26 08:45:53;;;;;;;13.15;4.30;;;4.80;99.90;;;;;;5136807;27;20476;-72
2021/11/26 08:48:19;;;;;;;10.40;3.13;;;4.80;99.90;;;;;;5135902;27;20111;-71
2021/11/26 08:50:45;;;;;;;10.57;3.17;;;4.80;99.90;;;;;;5137389;27;20080;-71
2021/11/26 08:53:11;;;;;;;6.20;3.45;;;4.80;99.90;;;;;;5137557;27;20349;-72
2021/11/26 08:55:39;;;;;;;13.40;3.92;;;4.90;99.90;;;;;;5136714;27;20073;-72
2021/11/26 08:58:09;;;;;;;9.43;3.40;;;4.90;99.90;;;;;;5137033;27;20039;-72
2021/11/26 09:00:35;;;;;;;8.70;3.40;;;4.90;99.90;;;;;;5136901;27;20416;-72
2021/11/26 09:03:05;;;;;;;9.73;3.45;;;4.90;99.90;;;;;;5137030;27;20043;-71
2021/11/26 09:05:31;;;;;;;11.07;3.63;;;4.90;99.90;;;;;;5137068;27;20200;-72
2021/11/26 09:08:02;;;;;;;14.00;3.90;;;4.90;99.90;;;;;;5136848;27;20035;-72
2021/11/26 09:10:29;;;;;;;8.20;3.03;;;4.90;99.90;;;;;;5135724;27;20473;-71
2021/11/26 09:12:55;;;;;;;10.77;3.50;;;5.00;99.90;;;;;;5136580;27;20042;-72
2021/11/26 09:15:22;;;;;;;12.68;3.80;;;5.00;99.90;;;;;;5135550;27;20043;-72
2021/11/26 09:17:48;;;;;;;10.63;3.20;;;5.00;99.90;;;;;;5136034;27;20470;-72
2021/11/26 09:20:14;;;;;;;8.43;2.75;;;5.00;99.90;;;;;;5135188;27;20500;-71
2021/11/26 09:22:40;;;;;;;10.32;3.47;;;5.00;99.90;;;;;;5136564;27;20083;-72
2021/11/26 09:25:06;;;;;;;13.52;3.50;;;5.00;99.90;;;;;;5136525;27;20074;-72
2021/11/26 09:27:32;;;;;;;10.10;3.95;;;5.00;99.90;;;;;;5136010;27;20437;-71
2021/11/26 09:29:58;;;;;;;10.15;3.67;;;5.00;99.90;;;;;;5136299;27;20038;-71
2021/11/26 09:32:24;;;;;;;11.63;3.70;;;5.00;99.90;;;;;;5136572;27;20172;-71
2021/11/26 09:34:50;;;;;;;8.65;2.85;;;5.00;99.90;;;;;;5136115;27;20039;-72
2021/11/26 09:37:16;;;;;;;10.23;2.53;;;5.00;99.90;;;;;;5134384;27;20480;-72
2021/11/26 09:39:42;;;;;;;7.70;3.10;;;5.00;99.90;;;;;;5136541;27;20060;-71
2021/11/26 09:42:08;;;;;;;6.40;2.63;;;5.00;99.90;;;;;;5136412;27;20039;-71
2021/11/26 09:44:35;;;;;;;10.02;2.80;;;5.00;99.90;;;;;;5135201;27;20031;-71
2021/11/26 09:47:02;;;;;;;12.63;4.10;;;5.00;99.90;;;;;;5135623;27;20403;-71
2021/11/26 09:49:28;;;;;;;6.47;2.90;;;5.10;99.90;;;;;;5135956;27;20114;-71
2021/11/26 09:51:53;;;;;;;7.43;2.78;;;5.10;99.90;;;;;;5135893;27;20031;-70
2021/11/26 09:54:19;;;;;;;11.00;2.88;;;5.10;99.90;;;;;;5134437;27;20057;-71
2021/11/26 09:56:45;;;;;;;12.73;2.78;;;5.10;99.90;;;;;;5135245;27;20046;-71
2021/11/26 09:59:10;;;;;;;10.43;2.83;;;5.10;99.90;;;;;;5135878;27;20110;-71
2021/11/26 10:01:37;;;;;;;6.75;2.60;;;5.20;99.90;;;;;;5134360;27;20027;-70
2021/11/26 10:04:03;;;;;;;9.98;3.15;;;5.20;99.90;;;;;;5135925;27;20081;-71
2021/11/26 10:06:38;;;;;;;9.38;3.13;;;5.30;99.90;;;;;;5133933;27;20067;-72
2021/11/26 10:09:06;;;;;;;9.60;3.00;;;5.30;99.90;;;;;;5135965;27;20042;-71
2021/11/26 10:11:37;;;;;;;14.77;3.40;;;5.30;99.90;;;;;;5135768;27;20130;-71
2021/11/26 10:14:19;;;;;;;10.90;3.95;;;5.40;99.90;;;;;;5135966;27;20046;-71
2021/11/26 10:16:48;;;;;;;5.50;2.88;;;5.40;99.90;;;;;;5134967;27;20054;-72
2021/11/26 10:19:15;;;;;;;8.23;3.38;;;5.40;99.90;;;;;;5135208;27;20039;-72
2021/11/26 10:21:42;;;;;;;9.65;3.13;;;5.50;99.90;;;;;;5135132;27;20058;-71
2021/11/26 10:24:16;;;;;;;9.93;3.50;;;5.50;99.90;;;;;;5135061;27;20441;-72
2021/11/26 10:26:51;;;;;;;11.32;3.22;;;5.50;99.90;;;;;;5134950;27;20137;-72
2021/11/26 10:29:28;;;;;;;10.93;3.45;;;5.60;99.90;;;;;;5134507;27;20031;-71
2021/11/26 10:32:03;;;;;;;10.93;2.72;;;5.60;99.90;;;;;;5116867;27;20039;-71
2021/11/26 10:34:30;;;;;;;6.63;3.28;;;5.60;99.90;;;;;;5135159;27;20057;-70
2021/11/26 10:36:57;;;;;;;6.55;3.03;;;5.60;99.90;;;;;;5133235;27;20137;-71
2021/11/26 10:39:23;;;;;;;9.00;2.63;;;5.70;99.90;;;;;;5135027;27;20433;-71
2021/11/26 10:42:00;;;;;;;5.72;3.40;;;5.70;99.90;;;;;;5133585;27;20127;-71
2021/11/26 10:44:41;;;;;;;7.65;3.20;;;5.70;99.90;;;;;;5134832;27;20031;-71
2021/11/26 10:48:19;;;;;;;9.45;3.20;;;5.70;99.90;;;;;;5133306;27;20433;-71
2021/11/26 10:58:48;;;;;;;11.50;3.25;;;5.80;99.90;;;;;;5114106;28;20075;-71
2021/11/26 11:01:13;;;;;;;11.45;2.78;;;5.90;99.90;;;;;;5113851;28;20044;-71
2021/11/26 11:03:41;;;;;;;10.15;3.13;;;5.90;99.90;;;;;;5112870;28;20046;-71
2021/11/26 11:06:21;;;;;;;7.68;2.97;;;5.90;99.90;;;;;;5112653;28;20369;-71
2021/11/26 11:09:04;;;;;;;8.68;2.30;;;5.90;99.90;;;;;;5111953;27;20051;-71
2021/11/26 11:11:30;;;;;;;7.13;2.80;;;6.10;99.90;;;;;;5111432;28;20085;-71
2021/11/26 11:13:58;;;;;;;9.88;3.30;;;6.20;99.90;;;;;;5110937;28;20176;-71
2021/11/26 11:16:24;;;;;;;8.68;3.58;;;6.30;99.90;;;;;;5112283;28;20039;-71
2021/11/26 11:18:50;;;;;;;6.82;2.60;;;6.40;99.90;;;;;;5113702;28;20507;-71
2021/11/26 11:21:16;;;;;;;11.88;4.35;;;6.40;99.90;;;;;;5114059;28;20061;-70
2021/11/26 11:23:42;;;;;;;8.40;3.55;;;6.50;99.90;;;;;;5112398;28;20441;-71
2021/11/26 11:26:07;;;;;;;9.18;2.90;;;6.50;99.90;;;;;;5113550;28;20089;-71
2021/11/26 11:28:34;;;;;;;14.27;3.58;;;6.60;99.90;;;;;;5113805;28;20035;-71
2021/11/26 11:31:00;;;;;;;12.80;3.67;;;6.60;99.90;;;;;;5113022;28;20169;-71
2021/11/26 11:33:26;;;;;;;10.50;3.40;;;6.70;99.90;;;;;;5113575;28;20077;-71
2021/11/26 11:35:59;;;;;;;12.55;4.40;;;6.60;99.90;;;;;;5111830;28;20035;-71
2021/11/26 11:38:24;;;;;;;10.82;4.13;;;6.70;99.90;;;;;;5113263;28;20032;-70
2021/11/26 11:40:59;;;;;;;10.48;3.97;;;6.80;99.90;;;;;;5115324;28;20454;-71
2021/11/26 11:43:25;;;;;;;8.23;3.70;;;6.80;99.90;;;;;;5116578;28;20055;-71
2021/11/26 11:45:54;;;;;;;12.07;3.55;;;6.80;99.90;;;;;;5099058;28;20035;-71
2021/11/26 11:48:34;;;;;;;8.93;3.38;;;6.80;99.90;;;;;;5116435;28;20108;-71
2021/11/26 11:51:00;;;;;;;10.23;3.53;;;6.80;99.90;;;;;;5117997;28;20084;-71
2021/11/26 11:53:32;;;;;;;7.95;3.88;;;6.80;99.90;;;;;;5117637;28;20035;-71
2021/11/26 11:56:23;;;;;;;8.88;4.07;;;6.90;99.90;;;;;;5117292;28;20119;-71
2021/11/26 11:58:52;;;;;;;6.88;3.08;;;7.00;99.90;;;;;;5130531;27;20122;-71
2021/11/26 12:01:27;;;;;;;4.80;3.50;;;7.00;99.90;;;;;;5116468;28;20047;-71
2021/11/26 12:03:54;;;;;;;10.82;3.85;;;7.00;99.90;;;;;;5118027;28;20032;-71
2021/11/26 12:06:21;;;;;;;16.52;4.15;;;7.00;99.90;;;;;;5117391;28;20051;-71
2021/11/26 12:08:47;;;;;;;9.43;4.40;;;7.00;99.90;;;;;;5116225;28;20104;-71
2021/11/26 12:11:29;;;;;;;11.55;4.22;;;7.00;99.90;;;;;;5116426;28;20098;-70
2021/11/26 12:14:00;;;;;;;9.48;3.88;;;7.00;99.90;;;;;;5117343;28;20099;-71
2021/11/26 12:16:26;;;;;;;11.63;4.00;;;7.00;99.90;;;;;;5117090;28;20042;-71
2021/11/26 12:18:54;;;;;;;8.45;3.85;;;7.00;99.90;;;;;;5117412;27;20031;-70
2021/11/26 12:21:29;;;;;;;20.30;5.07;;;7.00;99.90;;;;;;5115944;28;20044;-71
2021/11/26 12:24:13;;;;;;;15.65;4.30;;;7.00;99.90;;;;;;5116295;28;20071;-71
2021/11/26 12:26:59;;;;;;;;;;;7.00;99.90;;;;;;5117221;27;20046;-71
2021/11/26 12:29:35;;;;;;;15.10;4.75;;;6.90;99.90;;;;;;5117441;28;19922;-71
2021/11/26 12:32:13;;;;;;;17.83;6.47;;;6.80;99.90;;;;;;5116779;28;20504;-71
2021/11/26 12:34:51;;;;;;;9.73;4.70;;;6.90;99.90;;;;;;5116863;28;20032;-71
2021/11/26 12:37:20;;;;;;;14.65;5.60;;;6.80;99.90;;;;;;5116386;28;20036;-71
2021/11/26 12:39:46;;;;;;;12.32;5.15;;;6.90;99.90;;;;;;5116835;28;20050;-71
2021/11/26 12:42:12;;;;;;;15.77;6.55;;;6.80;99.90;;;;;;5116958;28;20040;-71
2021/11/26 12:44:37;;;;;;;11.45;5.95;;;6.80;99.90;;;;;;5116798;28;20442;-70
2021/11/26 12:47:08;;;;;;;14.02;5.57;;;6.80;99.90;;;;;;5115045;28;20040;-71
2021/11/26 12:52:07;;;;;;;11.48;5.65;;;6.80;99.90;;;;;;5116149;28;20047;-71
2021/11/26 12:54:36;;;;;;;18.13;6.43;;;6.80;99.90;;;;;;5115517;28;20050;-72
2021/11/26 12:57:04;;;;;;;16.42;6.47;;;6.80;99.90;;;;;;5116225;28;20375;-71
2021/11/26 12:59:34;;;;;;;14.75;5.63;;;6.80;99.90;;;;;;5116462;28;20036;-71
2021/11/26 13:02:00;;;;;;;14.75;5.78;;;6.70;99.90;;;;;;5116504;28;20485;-71
2021/11/26 13:04:27;;;;;;;13.00;5.72;;;6.70;99.90;;;;;;5117053;28;20054;-71
2021/11/26 13:07:08;;;;;;;12.75;5.93;;;6.70;99.90;;;;;;5115814;28;20480;-71